sensor_id;sensor_type;location;lat;lon;timestamp;pressure;altitude;pressure_sealevel;temperature;humidity
46291;BME280;32023;44.444;26.006;2023-03-26T00:02:34;99497.75;;;11.95;61.70
46291;BME280;32023;44.444;26.006;2023-03-26T00:05:05;99488.06;;;11.98;61.38
46291;BME280;32023;44.444;26.006;2023-03-26T00:07:35;99485.88;;;12.00;61.48
46291;BME280;32023;44.444;26.006;2023-03-26T00:10:01;99477.50;;;12.05;60.92
46291;BME280;32023;44.444;26.006;2023-03-26T00:15:11;99490.53;;;12.04;61.20
46291;BME280;32023;44.444;26.006;2023-03-26T00:17:43;99480.88;;;12.02;61.58
46291;BME280;32023;44.444;26.006;2023-03-26T00:20:20;99480.03;;;12.01;61.52
46291;BME280;32023;44.444;26.006;2023-03-26T00:23:03;99478.19;;;11.97;61.68
46291;BME280;32023;44.444;26.006;2023-03-26T00:25:36;99477.63;;;11.95;61.82
46291;BME280;32023;44.444;26.006;2023-03-26T00:28:06;99475.44;;;11.92;61.92
46291;BME280;32023;44.444;26.006;2023-03-26T00:30:34;99474.38;;;11.88;62.69
46291;BME280;32023;44.444;26.006;2023-03-26T00:33:07;99470.81;;;11.87;62.46
46291;BME280;32023;44.444;26.006;2023-03-26T00:35:37;99460.34;;;11.84;63.39
46291;BME280;32023;44.444;26.006;2023-03-26T00:38:08;99468.63;;;11.84;63.30
46291;BME280;32023;44.444;26.006;2023-03-26T00:40:39;99477.41;;;11.86;63.96
46291;BME280;32023;44.444;26.006;2023-03-26T00:43:27;99470.53;;;11.89;63.83
46291;BME280;32023;44.444;26.006;2023-03-26T00:46:08;99468.28;;;11.91;63.93
46291;BME280;32023;44.444;26.006;2023-03-26T00:48:44;99475.44;;;11.92;64.78
46291;BME280;32023;44.444;26.006;2023-03-26T00:51:33;99477.09;;;11.93;65.59
46291;BME280;32023;44.444;26.006;2023-03-26T00:54:08;99504.16;;;11.91;65.92
46291;BME280;32023;44.444;26.006;2023-03-26T00:56:37;99487.38;;;11.82;66.58
46291;BME280;32023;44.444;26.006;2023-03-26T00:59:06;99473.94;;;11.76;66.92
46291;BME280;32023;44.444;26.006;2023-03-26T01:01:35;99476.72;;;11.71;67.37
46291;BME280;32023;44.444;26.006;2023-03-26T01:07:09;99464.88;;;11.70;68.18
46291;BME280;32023;44.444;26.006;2023-03-26T01:12:10;99460.09;;;11.81;67.98
46291;BME280;32023;44.444;26.006;2023-03-26T01:14:51;99468.63;;;11.84;68.12
46291;BME280;32023;44.444;26.006;2023-03-26T01:17:18;99466.63;;;11.90;68.01
46291;BME280;32023;44.444;26.006;2023-03-26T01:22:23;99469.63;;;11.93;68.06
46291;BME280;32023;44.444;26.006;2023-03-26T01:24:50;99455.84;;;11.93;68.48
46291;BME280;32023;44.444;26.006;2023-03-26T01:30:31;99469.31;;;12.00;68.80
46291;BME280;32023;44.444;26.006;2023-03-26T01:36:04;99463.16;;;12.08;69.00
46291;BME280;32023;44.444;26.006;2023-03-26T01:38:58;99475.78;;;12.14;68.86
46291;BME280;32023;44.444;26.006;2023-03-26T01:41:40;99481.78;;;12.21;68.79
46291;BME280;32023;44.444;26.006;2023-03-26T01:46:56;99470.38;;;12.28;69.94
46291;BME280;32023;44.444;26.006;2023-03-26T01:49:27;99482.84;;;12.25;71.56
46291;BME280;32023;44.444;26.006;2023-03-26T01:51:56;99484.84;;;12.20;72.85
46291;BME280;32023;44.444;26.006;2023-03-26T01:54:26;99487.94;;;12.13;74.31
46291;BME280;32023;44.444;26.006;2023-03-26T01:59:27;99491.03;;;12.06;75.75
46291;BME280;32023;44.444;26.006;2023-03-26T02:07:24;99490.31;;;11.96;77.51
46291;BME280;32023;44.444;26.006;2023-03-26T02:10:01;99485.66;;;11.91;77.92
46291;BME280;32023;44.444;26.006;2023-03-26T02:12:38;99499.47;;;11.91;78.96
46291;BME280;32023;44.444;26.006;2023-03-26T02:15:08;99486.53;;;11.87;79.03
46291;BME280;32023;44.444;26.006;2023-03-26T02:17:34;99488.53;;;11.81;80.13
46291;BME280;32023;44.444;26.006;2023-03-26T02:20:01;99499.88;;;11.75;80.84
46291;BME280;32023;44.444;26.006;2023-03-26T02:22:33;99498.78;;;11.71;82.13
46291;BME280;32023;44.444;26.006;2023-03-26T02:25:15;99494.97;;;11.67;82.80
46291;BME280;32023;44.444;26.006;2023-03-26T02:27:44;99507.97;;;11.56;84.05
46291;BME280;32023;44.444;26.006;2023-03-26T02:30:15;99509.97;;;11.50;85.29
46291;BME280;32023;44.444;26.006;2023-03-26T02:32:45;99503.97;;;11.43;86.42
46291;BME280;32023;44.444;26.006;2023-03-26T02:35:11;99503.97;;;11.38;87.69
46291;BME280;32023;44.444;26.006;2023-03-26T02:37:38;99500.16;;;11.34;88.01
46291;BME280;32023;44.444;26.006;2023-03-26T02:40:05;99512.31;;;11.28;89.25
46291;BME280;32023;44.444;26.006;2023-03-26T02:42:36;99515.59;;;11.30;89.39
46291;BME280;32023;44.444;26.006;2023-03-26T02:45:05;99515.84;;;11.34;89.12
46291;BME280;32023;44.444;26.006;2023-03-26T02:47:31;99512.22;;;11.43;88.87
46291;BME280;32023;44.444;26.006;2023-03-26T02:50:01;99515.47;;;11.50;88.33
46291;BME280;32023;44.444;26.006;2023-03-26T02:52:29;99515.22;;;11.47;88.11
46291;BME280;32023;44.444;26.006;2023-03-26T02:55:00;99515.47;;;11.50;88.25
46291;BME280;32023;44.444;26.006;2023-03-26T02:57:27;99517.91;;;11.57;87.97
46291;BME280;32023;44.444;26.006;2023-03-26T03:00:00;99520.41;;;11.53;87.81
46291;BME280;32023;44.444;26.006;2023-03-26T03:02:30;99521.25;;;11.54;87.64
46291;BME280;32023;44.444;26.006;2023-03-26T03:05:04;99516.59;;;11.49;88.38
46291;BME280;32023;44.444;26.006;2023-03-26T03:07:30;99513.31;;;11.42;89.21
46291;BME280;32023;44.444;26.006;2023-03-26T03:10:08;99527.72;;;11.34;90.09
46291;BME280;32023;44.444;26.006;2023-03-26T03:12:35;99526.06;;;11.33;90.04
46291;BME280;32023;44.444;26.006;2023-03-26T03:15:04;99524.97;;;11.29;90.51
46291;BME280;32023;44.444;26.006;2023-03-26T03:17:38;99517.59;;;11.25;91.46
46291;BME280;32023;44.444;26.006;2023-03-26T03:20:05;99525.88;;;11.20;92.14
46291;BME280;32023;44.444;26.006;2023-03-26T03:22:47;99526.72;;;11.15;92.58
46291;BME280;32023;44.444;26.006;2023-03-26T03:25:16;99526.75;;;11.10;93.33
46291;BME280;32023;44.444;26.006;2023-03-26T03:33:10;99529.56;;;11.00;94.15
46291;BME280;32023;44.444;26.006;2023-03-26T03:38:31;99537.81;;;11.00;94.75
46291;BME280;32023;44.444;26.006;2023-03-26T03:41:00;99535.63;;;11.02;94.10
46291;BME280;32023;44.444;26.006;2023-03-26T03:43:45;99524.03;;;11.00;93.99
46291;BME280;32023;44.444;26.006;2023-03-26T03:46:25;99533.97;;;11.01;94.31
46291;BME280;32023;44.444;26.006;2023-03-26T03:51:43;99520.75;;;10.98;94.48
46291;BME280;32023;44.444;26.006;2023-03-26T03:54:11;99522.44;;;10.94;94.63
46291;BME280;32023;44.444;26.006;2023-03-26T03:56:40;99524.09;;;10.95;94.73
46291;BME280;32023;44.444;26.006;2023-03-26T03:59:16;99525.44;;;10.92;94.45
46291;BME280;32023;44.444;26.006;2023-03-26T04:01:48;99527.38;;;10.92;94.34
46291;BME280;32023;44.444;26.006;2023-03-26T04:04:37;99522.69;;;10.92;94.32
46291;BME280;32023;44.444;26.006;2023-03-26T04:07:20;99536.78;;;10.86;94.79
46291;BME280;32023;44.444;26.006;2023-03-26T04:09:48;99533.78;;;10.82;95.25
46291;BME280;32023;44.444;26.006;2023-03-26T04:12:17;99536.25;;;10.79;95.15
46291;BME280;32023;44.444;26.006;2023-03-26T04:14:47;99533.22;;;10.80;95.58
46291;BME280;32023;44.444;26.006;2023-03-26T04:17:16;99532.13;;;10.81;95.53
46291;BME280;32023;44.444;26.006;2023-03-26T04:19:49;99535.44;;;10.78;95.44
46291;BME280;32023;44.444;26.006;2023-03-26T04:22:26;99531.84;;;10.78;95.03
46291;BME280;32023;44.444;26.006;2023-03-26T04:25:21;99512.63;;;10.68;95.19
46291;BME280;32023;44.444;26.006;2023-03-26T04:34:07;99540.44;;;10.71;95.43
46291;BME280;32023;44.444;26.006;2023-03-26T04:36:43;99541.25;;;10.72;94.90
46291;BME280;32023;44.444;26.006;2023-03-26T04:39:14;99542.88;;;10.73;95.02
46291;BME280;32023;44.444;26.006;2023-03-26T04:41:58;99553.38;;;10.71;95.52
46291;BME280;32023;44.444;26.006;2023-03-26T04:44:32;99546.75;;;10.72;95.17
46291;BME280;32023;44.444;26.006;2023-03-26T04:47:01;99551.13;;;10.73;95.72
46291;BME280;32023;44.444;26.006;2023-03-26T04:49:27;99553.88;;;10.73;95.07
46291;BME280;32023;44.444;26.006;2023-03-26T04:51:56;99555.56;;;10.74;94.97
46291;BME280;32023;44.444;26.006;2023-03-26T04:54:25;99562.16;;;10.78;95.18
46291;BME280;32023;44.444;26.006;2023-03-26T04:56:51;99564.06;;;10.82;95.13
46291;BME280;32023;44.444;26.006;2023-03-26T04:59:22;99560.22;;;10.83;94.91
46291;BME280;32023;44.444;26.006;2023-03-26T05:01:55;99560.22;;;10.83;94.81
46291;BME280;32023;44.444;26.006;2023-03-26T05:07:19;99555.78;;;10.87;93.91
46291;BME280;32023;44.444;26.006;2023-03-26T05:09:46;99570.09;;;10.89;93.96
46291;BME280;32023;44.444;26.006;2023-03-26T05:12:15;99563.75;;;10.89;93.15
46291;BME280;32023;44.444;26.006;2023-03-26T05:14:44;99565.94;;;10.92;93.26
46291;BME280;32023;44.444;26.006;2023-03-26T05:17:11;99573.69;;;10.90;92.69
46291;BME280;32023;44.444;26.006;2023-03-26T05:19:46;99587.69;;;10.98;92.51
46291;BME280;32023;44.444;26.006;2023-03-26T05:22:17;99577.47;;;11.04;92.24
46291;BME280;32023;44.444;26.006;2023-03-26T05:24:43;99582.97;;;11.04;92.23
46291;BME280;32023;44.444;26.006;2023-03-26T05:27:13;99585.72;;;11.09;91.85
46291;BME280;32023;44.444;26.006;2023-03-26T05:29:39;99588.47;;;11.09;91.70
46291;BME280;32023;44.444;26.006;2023-03-26T05:32:07;99595.34;;;11.11;91.97
46291;BME280;32023;44.444;26.006;2023-03-26T05:34:36;99593.41;;;11.12;92.09
46291;BME280;32023;44.444;26.006;2023-03-26T05:37:03;99606.09;;;11.13;91.67
46291;BME280;32023;44.444;26.006;2023-03-26T05:39:32;99605.78;;;11.20;91.22
46291;BME280;32023;44.444;26.006;2023-03-26T05:41:58;99598.88;;;11.27;91.22
46291;BME280;32023;44.444;26.006;2023-03-26T05:44:24;99604.38;;;11.27;90.90
46291;BME280;32023;44.444;26.006;2023-03-26T05:46:51;99606.56;;;11.30;90.53
46291;BME280;32023;44.444;26.006;2023-03-26T05:49:22;99611.22;;;11.35;90.63
46291;BME280;32023;44.444;26.006;2023-03-26T05:51:49;99619.75;;;11.38;89.98
46291;BME280;32023;44.444;26.006;2023-03-26T05:54:15;99620.25;;;11.45;90.25
46291;BME280;32023;44.444;26.006;2023-03-26T05:56:41;99621.84;;;11.56;89.88
46291;BME280;32023;44.444;26.006;2023-03-26T05:59:10;99622.09;;;11.65;88.79
46291;BME280;32023;44.444;26.006;2023-03-26T06:01:41;99623.44;;;11.78;88.69
46291;BME280;32023;44.444;26.006;2023-03-26T06:04:15;99627.22;;;11.87;87.64
46291;BME280;32023;44.444;26.006;2023-03-26T06:06:44;99636.31;;;11.87;85.98
46291;BME280;32023;44.444;26.006;2023-03-26T06:09:13;99646.75;;;11.95;86.33
46291;BME280;32023;44.444;26.006;2023-03-26T06:11:39;99656.63;;;12.01;85.66
46291;BME280;32023;44.444;26.006;2023-03-26T06:14:13;99658.53;;;12.06;85.35
46291;BME280;32023;44.444;26.006;2023-03-26T06:16:43;99663.44;;;12.14;85.51
46291;BME280;32023;44.444;26.006;2023-03-26T06:19:09;99669.19;;;12.23;85.17
46291;BME280;32023;44.444;26.006;2023-03-26T06:21:36;99676.81;;;12.36;85.41
46291;BME280;32023;44.444;26.006;2023-03-26T06:24:02;99677.00;;;12.49;85.10
46291;BME280;32023;44.444;26.006;2023-03-26T06:26:28;99677.09;;;12.68;85.02
46291;BME280;32023;44.444;26.006;2023-03-26T06:28:55;99680.47;;;12.89;84.12
46291;BME280;32023;44.444;26.006;2023-03-26T06:31:21;99688.00;;;13.07;83.33
46291;BME280;32023;44.444;26.006;2023-03-26T06:33:47;99690.66;;;13.22;82.60
46291;BME280;32023;44.444;26.006;2023-03-26T06:36:14;99690.56;;;13.32;82.09
46291;BME280;32023;44.444;26.006;2023-03-26T06:38:49;99692.69;;;13.40;81.11
46291;BME280;32023;44.444;26.006;2023-03-26T06:41:20;99697.06;;;13.41;80.17
46291;BME280;32023;44.444;26.006;2023-03-26T06:43:49;99705.91;;;13.43;79.94
46291;BME280;32023;44.444;26.006;2023-03-26T06:48:48;99709.28;;;13.40;77.85
46291;BME280;32023;44.444;26.006;2023-03-26T06:51:18;99701.31;;;13.34;75.82
46291;BME280;32023;44.444;26.006;2023-03-26T06:53:44;99706.19;;;13.42;76.30
46291;BME280;32023;44.444;26.006;2023-03-26T06:56:11;99700.84;;;13.50;75.35
46291;BME280;32023;44.444;26.006;2023-03-26T06:58:37;99703.38;;;13.47;73.51
46291;BME280;32023;44.444;26.006;2023-03-26T07:01:06;99695.31;;;13.50;73.79
46291;BME280;32023;44.444;26.006;2023-03-26T07:03:32;99685.50;;;13.39;72.97
46291;BME280;32023;44.444;26.006;2023-03-26T07:06:01;99661.25;;;13.31;72.06
46291;BME280;32023;44.444;26.006;2023-03-26T07:08:49;99641.00;;;13.12;69.79
46291;BME280;32023;44.444;26.006;2023-03-26T07:11:26;99646.16;;;12.95;69.27
46291;BME280;32023;44.444;26.006;2023-03-26T07:14:15;99674.50;;;13.06;68.46
46291;BME280;32023;44.444;26.006;2023-03-26T07:16:43;99672.03;;;13.33;68.66
46291;BME280;32023;44.444;26.006;2023-03-26T07:19:18;99674.03;;;13.70;67.83
46291;BME280;32023;44.444;26.006;2023-03-26T07:24:37;99654.31;;;14.65;63.62
46291;BME280;32023;44.444;26.006;2023-03-26T07:27:16;99655.63;;;15.13;61.66
46291;BME280;32023;44.444;26.006;2023-03-26T07:29:58;99664.69;;;15.73;60.07
46291;BME280;32023;44.444;26.006;2023-03-26T07:35:45;99678.66;;;16.54;54.79
46291;BME280;32023;44.444;26.006;2023-03-26T07:38:26;99677.63;;;16.50;54.34
46291;BME280;32023;44.444;26.006;2023-03-26T07:45:58;99691.44;;;16.19;53.85
46291;BME280;32023;44.444;26.006;2023-03-26T07:48:28;99691.56;;;16.36;53.13
46291;BME280;32023;44.444;26.006;2023-03-26T07:50:56;99693.63;;;16.66;52.28
46291;BME280;32023;44.444;26.006;2023-03-26T07:53:31;99705.00;;;16.78;51.20
46291;BME280;32023;44.444;26.006;2023-03-26T08:04:25;99719.91;;;17.66;48.55
46291;BME280;32023;44.444;26.006;2023-03-26T08:12:57;99733.50;;;19.02;42.88
46291;BME280;32023;44.444;26.006;2023-03-26T08:18:30;99730.84;;;19.69;40.51
46291;BME280;32023;44.444;26.006;2023-03-26T08:21:23;99738.66;;;19.84;39.41
46291;BME280;32023;44.444;26.006;2023-03-26T08:31:48;99732.63;;;19.74;38.42
46291;BME280;32023;44.444;26.006;2023-03-26T08:34:23;99755.41;;;19.84;39.25
46291;BME280;32023;44.444;26.006;2023-03-26T08:36:55;99754.41;;;20.18;38.36
46291;BME280;32023;44.444;26.006;2023-03-26T08:39:23;99760.25;;;19.75;38.59
46291;BME280;32023;44.444;26.006;2023-03-26T08:52:15;99767.78;;;20.12;40.14
46291;BME280;32023;44.444;26.006;2023-03-26T09:05:53;99761.38;;;20.62;37.47
46291;BME280;32023;44.444;26.006;2023-03-26T09:08:44;99770.16;;;20.52;37.62
46291;BME280;32023;44.444;26.006;2023-03-26T09:19:35;99759.44;;;20.95;35.87
46291;BME280;32023;44.444;26.006;2023-03-26T09:30:31;99725.34;;;21.83;34.31
46291;BME280;32023;44.444;26.006;2023-03-26T09:38:36;99727.13;;;22.64;32.76
46291;BME280;32023;44.444;26.006;2023-03-26T09:41:07;99723.00;;;22.34;33.25
46291;BME280;32023;44.444;26.006;2023-03-26T09:46:54;99711.63;;;23.69;31.99
46291;BME280;32023;44.444;26.006;2023-03-26T09:52:15;99729.78;;;23.87;29.66
46291;BME280;32023;44.444;26.006;2023-03-26T09:59:59;99710.13;;;26.55;26.47
46291;BME280;32023;44.444;26.006;2023-03-26T10:23:49;99660.19;;;36.57;13.83
46291;BME280;32023;44.444;26.006;2023-03-26T10:40:10;99664.53;;;28.90;19.90
46291;BME280;32023;44.444;26.006;2023-03-26T10:42:54;99658.31;;;28.56;20.42
46291;BME280;32023;44.444;26.006;2023-03-26T10:50:28;99637.69;;;33.35;16.06
46291;BME280;32023;44.444;26.006;2023-03-26T10:55:45;99637.88;;;34.84;14.83
46291;BME280;32023;44.444;26.006;2023-03-26T10:58:22;99635.34;;;35.41;14.27
46291;BME280;32023;44.444;26.006;2023-03-26T11:00:59;99631.25;;;33.81;15.70
46291;BME280;32023;44.444;26.006;2023-03-26T11:11:38;99626.69;;;34.30;15.66
46291;BME280;32023;44.444;26.006;2023-03-26T11:19:51;99586.25;;;34.08;15.54
46291;BME280;32023;44.444;26.006;2023-03-26T11:24:42;99590.91;;;29.57;18.93
46291;BME280;32023;44.444;26.006;2023-03-26T11:27:24;99592.25;;;28.31;19.38
46291;BME280;32023;44.444;26.006;2023-03-26T11:30:04;99576.63;;;26.95;20.21
46291;BME280;32023;44.444;26.006;2023-03-26T11:32:55;99581.22;;;28.12;19.07
46291;BME280;32023;44.444;26.006;2023-03-26T11:35:29;99569.00;;;28.01;19.13
46291;BME280;32023;44.444;26.006;2023-03-26T11:38:00;99574.59;;;27.39;20.08
46291;BME280;32023;44.444;26.006;2023-03-26T11:40:35;99562.91;;;25.21;18.33
46291;BME280;32023;44.444;26.006;2023-03-26T11:43:06;99572.28;;;24.22;21.76
46291;BME280;32023;44.444;26.006;2023-03-26T11:45:34;99553.81;;;25.54;22.90
46291;BME280;32023;44.444;26.006;2023-03-26T11:50:40;99555.81;;;28.33;19.30
46291;BME280;32023;44.444;26.006;2023-03-26T11:53:12;99550.66;;;27.77;20.05
46291;BME280;32023;44.444;26.006;2023-03-26T12:01:19;99542.44;;;27.07;20.46
46291;BME280;32023;44.444;26.006;2023-03-26T12:03:54;99523.94;;;26.76;21.16
46291;BME280;32023;44.444;26.006;2023-03-26T12:06:24;99540.44;;;26.37;21.44
46291;BME280;32023;44.444;26.006;2023-03-26T12:08:53;99532.72;;;26.01;21.70
46291;BME280;32023;44.444;26.006;2023-03-26T12:11:24;99535.50;;;25.67;22.20
46291;BME280;32023;44.444;26.006;2023-03-26T12:13:57;99530.69;;;25.19;21.69
46291;BME280;32023;44.444;26.006;2023-03-26T12:16:24;99522.78;;;25.05;22.40
46291;BME280;32023;44.444;26.006;2023-03-26T12:19:00;99521.00;;;24.32;23.20
46291;BME280;32023;44.444;26.006;2023-03-26T12:21:47;99527.09;;;24.15;23.58
46291;BME280;32023;44.444;26.006;2023-03-26T12:24:25;99527.53;;;24.36;23.49
46291;BME280;32023;44.444;26.006;2023-03-26T12:27:00;99514.53;;;24.28;23.33
46291;BME280;32023;44.444;26.006;2023-03-26T12:29:32;99519.75;;;23.91;24.11
46291;BME280;32023;44.444;26.006;2023-03-26T12:37:33;99515.19;;;23.48;22.88
46291;BME280;32023;44.444;26.006;2023-03-26T12:43:01;99499.00;;;23.80;22.67
46291;BME280;32023;44.444;26.006;2023-03-26T12:45:44;99491.16;;;23.51;23.31
46291;BME280;32023;44.444;26.006;2023-03-26T12:48:28;99490.63;;;22.67;24.61
46291;BME280;32023;44.444;26.006;2023-03-26T12:58:41;99480.50;;;22.47;24.25
46291;BME280;32023;44.444;26.006;2023-03-26T13:01:59;99482.00;;;22.72;24.71
46291;BME280;32023;44.444;26.006;2023-03-26T13:07:13;99473.91;;;22.71;23.95
46291;BME280;32023;44.444;26.006;2023-03-26T13:15:12;99466.47;;;22.63;24.01
46291;BME280;32023;44.444;26.006;2023-03-26T13:23:33;99451.31;;;22.36;24.37
46291;BME280;32023;44.444;26.006;2023-03-26T13:29:01;99455.47;;;22.26;24.92
46291;BME280;32023;44.444;26.006;2023-03-26T13:34:31;99452.84;;;22.18;23.29
46291;BME280;32023;44.444;26.006;2023-03-26T13:37:13;99451.31;;;22.20;24.33
46291;BME280;32023;44.444;26.006;2023-03-26T13:56:42;99455.94;;;21.08;27.44
46291;BME280;32023;44.444;26.006;2023-03-26T14:04:43;99448.97;;;20.54;28.16
46291;BME280;32023;44.444;26.006;2023-03-26T14:43:14;99423.69;;;19.73;29.67
46291;BME280;32023;44.444;26.006;2023-03-26T15:00:38;99423.72;;;19.52;28.18
46291;BME280;32023;44.444;26.006;2023-03-26T15:03:37;99422.47;;;19.41;28.14
46291;BME280;32023;44.444;26.006;2023-03-26T16:29:17;99466.94;;;16.29;33.10
46291;BME280;32023;44.444;26.006;2023-03-26T17:24:59;99585.44;;;15.26;35.20
46291;BME280;32023;44.444;26.006;2023-03-26T17:33:44;99585.56;;;15.08;35.42
46291;BME280;32023;44.444;26.006;2023-03-26T17:44:01;99594.81;;;15.03;35.23
46291;BME280;32023;44.444;26.006;2023-03-26T17:46:55;99609.28;;;15.00;35.34
46291;BME280;32023;44.444;26.006;2023-03-26T17:49:57;99608.59;;;14.94;35.34
46291;BME280;32023;44.444;26.006;2023-03-26T17:55:37;99611.75;;;14.88;35.89
46291;BME280;32023;44.444;26.006;2023-03-26T17:58:19;99605.50;;;14.82;36.41
46291;BME280;32023;44.444;26.006;2023-03-26T18:03:56;99609.03;;;14.69;36.62
46291;BME280;32023;44.444;26.006;2023-03-26T18:16:18;99614.28;;;14.57;36.61
46291;BME280;32023;44.444;26.006;2023-03-26T18:22:11;99607.16;;;14.51;36.78
46291;BME280;32023;44.444;26.006;2023-03-26T18:25:17;99604.19;;;14.48;36.82
46291;BME280;32023;44.444;26.006;2023-03-26T18:27:46;99588.78;;;14.41;36.91
46291;BME280;32023;44.444;26.006;2023-03-26T18:31:07;99601.00;;;14.40;36.82
46291;BME280;32023;44.444;26.006;2023-03-26T18:42:38;99595.00;;;14.33;36.67
46291;BME280;32023;44.444;26.006;2023-03-26T18:45:14;99591.69;;;14.31;36.75
46291;BME280;32023;44.444;26.006;2023-03-26T18:47:53;99592.28;;;14.28;36.88
46291;BME280;32023;44.444;26.006;2023-03-26T18:50:27;99603.16;;;14.25;37.05
46291;BME280;32023;44.444;26.006;2023-03-26T18:56:25;99597.34;;;14.26;36.73
46291;BME280;32023;44.444;26.006;2023-03-26T18:59:10;99599.28;;;14.26;36.55
46291;BME280;32023;44.444;26.006;2023-03-26T19:01:52;99600.72;;;14.23;36.77
46291;BME280;32023;44.444;26.006;2023-03-26T19:04:26;99597.41;;;14.21;36.79
46291;BME280;32023;44.444;26.006;2023-03-26T19:10:13;99608.25;;;14.18;36.88
46291;BME280;32023;44.444;26.006;2023-03-26T19:19:36;99617.03;;;14.06;37.76
46291;BME280;32023;44.444;26.006;2023-03-26T19:22:18;99615.16;;;14.02;38.00
46291;BME280;32023;44.444;26.006;2023-03-26T19:25:02;99622.75;;;13.96;38.35
46291;BME280;32023;44.444;26.006;2023-03-26T19:27:31;99625.56;;;13.91;38.56
46291;BME280;32023;44.444;26.006;2023-03-26T19:29:58;99622.66;;;13.82;38.78
46291;BME280;32023;44.444;26.006;2023-03-26T19:32:28;99623.03;;;13.76;39.06
46291;BME280;32023;44.444;26.006;2023-03-26T19:47:41;99619.13;;;13.39;41.03
46291;BME280;32023;44.444;26.006;2023-03-26T19:50:40;99639.34;;;13.11;43.11
46291;BME280;32023;44.444;26.006;2023-03-26T19:58:41;99633.91;;;12.77;42.73
46291;BME280;32023;44.444;26.006;2023-03-26T20:01:15;99632.78;;;12.78;42.84
46291;BME280;32023;44.444;26.006;2023-03-26T20:03:48;99635.31;;;12.75;43.39
46291;BME280;32023;44.444;26.006;2023-03-26T20:06:25;99629.78;;;12.75;44.45
46291;BME280;32023;44.444;26.006;2023-03-26T20:09:05;99627.53;;;12.77;44.36
46291;BME280;32023;44.444;26.006;2023-03-26T20:11:40;99630.03;;;12.78;44.54
46291;BME280;32023;44.444;26.006;2023-03-26T20:14:14;99620.66;;;12.74;44.11
46291;BME280;32023;44.444;26.006;2023-03-26T20:16:41;99622.59;;;12.74;44.73
46291;BME280;32023;44.444;26.006;2023-03-26T20:19:13;99631.75;;;12.69;44.45
46291;BME280;32023;44.444;26.006;2023-03-26T20:24:51;99628.88;;;12.55;44.94
46291;BME280;32023;44.444;26.006;2023-03-26T20:27:23;99623.38;;;12.50;45.42
46291;BME280;32023;44.444;26.006;2023-03-26T20:29:59;99614.59;;;12.48;45.19
46291;BME280;32023;44.444;26.006;2023-03-26T20:32:25;99617.63;;;12.47;45.21
46291;BME280;32023;44.444;26.006;2023-03-26T20:34:54;99617.63;;;12.47;45.83
46291;BME280;32023;44.444;26.006;2023-03-26T20:37:22;99621.78;;;12.44;46.59
46291;BME280;32023;44.444;26.006;2023-03-26T20:39:51;99627.34;;;12.39;46.84
46291;BME280;32023;44.444;26.006;2023-03-26T20:42:23;99617.25;;;12.30;46.98
46291;BME280;32023;44.444;26.006;2023-03-26T20:45:13;99615.91;;;12.22;47.21
46291;BME280;32023;44.444;26.006;2023-03-26T20:47:43;99609.91;;;12.15;47.19
46291;BME280;32023;44.444;26.006;2023-03-26T20:50:15;99601.38;;;12.12;48.08
46291;BME280;32023;44.444;26.006;2023-03-26T20:53:01;99604.66;;;12.14;47.53
46291;BME280;32023;44.444;26.006;2023-03-26T21:01:48;99587.63;;;12.06;49.16
46291;BME280;32023;44.444;26.006;2023-03-26T21:10:39;99571.19;;;11.91;50.58
46291;BME280;32023;44.444;26.006;2023-03-26T21:16:08;99582.31;;;11.81;52.79
46291;BME280;32023;44.444;26.006;2023-03-26T21:18:41;99582.81;;;11.83;53.15
46291;BME280;32023;44.444;26.006;2023-03-26T21:30:05;99565.66;;;11.91;53.55
46291;BME280;32023;44.444;26.006;2023-03-26T21:32:34;99568.16;;;11.93;53.49
46291;BME280;32023;44.444;26.006;2023-03-26T21:35:05;99561.50;;;11.94;53.11
46291;BME280;32023;44.444;26.006;2023-03-26T21:37:43;99560.41;;;11.95;53.30
46291;BME280;32023;44.444;26.006;2023-03-26T21:40:15;99566.75;;;11.95;53.13
46291;BME280;32023;44.444;26.006;2023-03-26T21:42:50;99551.84;;;11.96;52.96
46291;BME280;32023;44.444;26.006;2023-03-26T21:45:18;99540.22;;;11.99;53.02
46291;BME280;32023;44.444;26.006;2023-03-26T21:47:51;99541.56;;;12.02;52.48
46291;BME280;32023;44.444;26.006;2023-03-26T21:53:13;99544.28;;;12.07;51.81
46291;BME280;32023;44.444;26.006;2023-03-26T22:06:29;99534.84;;;12.13;51.41
46291;BME280;32023;44.444;26.006;2023-03-26T22:08:57;99524.88;;;12.17;49.96
46291;BME280;32023;44.444;26.006;2023-03-26T22:11:24;99522.91;;;12.23;49.55
46291;BME280;32023;44.444;26.006;2023-03-26T22:13:55;99526.41;;;12.28;49.18
46291;BME280;32023;44.444;26.006;2023-03-26T22:16:22;99524.19;;;12.30;48.94
46291;BME280;32023;44.444;26.006;2023-03-26T22:18:50;99526.88;;;12.35;48.93
46291;BME280;32023;44.444;26.006;2023-03-26T22:21:19;99519.97;;;12.38;48.99
46291;BME280;32023;44.444;26.006;2023-03-26T22:23:54;99513.63;;;12.37;48.82
46291;BME280;32023;44.444;26.006;2023-03-26T22:26:28;99513.63;;;12.37;49.29
46291;BME280;32023;44.444;26.006;2023-03-26T22:28:55;99507.56;;;12.35;49.36
46291;BME280;32023;44.444;26.006;2023-03-26T22:31:22;99508.72;;;12.34;49.09
46291;BME280;32023;44.444;26.006;2023-03-26T22:33:59;99507.06;;;12.33;48.97
46291;BME280;32023;44.444;26.006;2023-03-26T22:36:31;99498.22;;;12.31;49.07
46291;BME280;32023;44.444;26.006;2023-03-26T22:39:00;99507.63;;;12.30;49.22
46291;BME280;32023;44.444;26.006;2023-03-26T22:41:29;99503.22;;;12.29;49.04
46291;BME280;32023;44.444;26.006;2023-03-26T22:43:58;99502.13;;;12.30;49.39
46291;BME280;32023;44.444;26.006;2023-03-26T22:46:27;99506.50;;;12.31;48.89
46291;BME280;32023;44.444;26.006;2023-03-26T22:48:55;99507.63;;;12.30;49.46
46291;BME280;32023;44.444;26.006;2023-03-26T22:51:22;99507.09;;;12.28;49.26